sensor_id;sensor_type;location;lat;lon;timestamp;temperature;humidity
418;DHT22;49;48.530;9.200;2023-12-29T00:00:48;14.60;21.00
418;DHT22;49;48.530;9.200;2023-12-29T00:03:15;14.50;21.00
418;DHT22;49;48.530;9.200;2023-12-29T00:05:42;14.60;20.90
418;DHT22;49;48.530;9.200;2023-12-29T00:08:09;14.80;20.40
418;DHT22;49;48.530;9.200;2023-12-29T00:10:37;14.90;19.90
418;DHT22;49;48.530;9.200;2023-12-29T00:13:04;14.60;20.30
418;DHT22;49;48.530;9.200;2023-12-29T00:15:31;14.30;20.50
418;DHT22;49;48.530;9.200;2023-12-29T00:17:58;14.10;21.90
418;DHT22;49;48.530;9.200;2023-12-29T00:20:25;14.00;21.90
418;DHT22;49;48.530;9.200;2023-12-29T00:22:51;14.00;21.60
418;DHT22;49;48.530;9.200;2023-12-29T00:25:19;14.10;22.50
418;DHT22;49;48.530;9.200;2023-12-29T00:27:47;14.30;20.60
418;DHT22;49;48.530;9.200;2023-12-29T00:30:15;14.40;20.10
418;DHT22;49;48.530;9.200;2023-12-29T00:32:43;14.30;20.00
418;DHT22;49;48.530;9.200;2023-12-29T00:35:10;14.20;20.00
418;DHT22;49;48.530;9.200;2023-12-29T00:37:37;14.10;19.90
418;DHT22;49;48.530;9.200;2023-12-29T00:40:06;13.80;21.00
418;DHT22;49;48.530;9.200;2023-12-29T00:42:34;13.80;20.70
418;DHT22;49;48.530;9.200;2023-12-29T00:45:03;14.20;20.00
418;DHT22;49;48.530;9.200;2023-12-29T00:47:30;14.30;19.90
418;DHT22;49;48.530;9.200;2023-12-29T00:49:57;14.40;19.50
418;DHT22;49;48.530;9.200;2023-12-29T00:52:24;14.30;18.20
418;DHT22;49;48.530;9.200;2023-12-29T00:54:51;14.20;19.20
418;DHT22;49;48.530;9.200;2023-12-29T00:57:18;14.50;17.80
418;DHT22;49;48.530;9.200;2023-12-29T00:59:47;14.30;18.00
418;DHT22;49;48.530;9.200;2023-12-29T01:02:15;14.70;17.50
418;DHT22;49;48.530;9.200;2023-12-29T01:04:42;14.50;17.50
418;DHT22;49;48.530;9.200;2023-12-29T01:07:09;14.30;17.80
418;DHT22;49;48.530;9.200;2023-12-29T01:09:37;13.90;19.30
418;DHT22;49;48.530;9.200;2023-12-29T01:12:05;14.00;21.20
418;DHT22;49;48.530;9.200;2023-12-29T01:14:32;14.10;19.50
418;DHT22;49;48.530;9.200;2023-12-29T01:16:59;14.30;20.00
418;DHT22;49;48.530;9.200;2023-12-29T01:19:27;14.30;19.30
418;DHT22;49;48.530;9.200;2023-12-29T01:21:54;14.30;20.20
418;DHT22;49;48.530;9.200;2023-12-29T01:24:21;14.30;19.30
418;DHT22;49;48.530;9.200;2023-12-29T01:26:48;14.30;20.00
418;DHT22;49;48.530;9.200;2023-12-29T01:29:14;13.70;20.90
418;DHT22;49;48.530;9.200;2023-12-29T01:31:41;13.40;22.00
418;DHT22;49;48.530;9.200;2023-12-29T01:34:08;13.60;21.80
418;DHT22;49;48.530;9.200;2023-12-29T01:36:36;13.60;22.00
418;DHT22;49;48.530;9.200;2023-12-29T01:39:03;13.70;21.50
418;DHT22;49;48.530;9.200;2023-12-29T01:41:30;13.50;22.40
418;DHT22;49;48.530;9.200;2023-12-29T01:44:27;13.50;22.20
418;DHT22;49;48.530;9.200;2023-12-29T01:46:55;13.50;21.90
418;DHT22;49;48.530;9.200;2023-12-29T01:49:23;13.60;22.40
418;DHT22;49;48.530;9.200;2023-12-29T01:51:54;13.60;22.30
418;DHT22;49;48.530;9.200;2023-12-29T01:54:24;13.80;22.10
418;DHT22;49;48.530;9.200;2023-12-29T01:56:52;13.90;20.90
418;DHT22;49;48.530;9.200;2023-12-29T01:59:21;13.60;22.70
418;DHT22;49;48.530;9.200;2023-12-29T02:01:48;13.50;22.90
418;DHT22;49;48.530;9.200;2023-12-29T02:04:15;13.60;22.40
418;DHT22;49;48.530;9.200;2023-12-29T02:06:44;13.40;22.70
418;DHT22;49;48.530;9.200;2023-12-29T02:09:12;13.30;24.50
418;DHT22;49;48.530;9.200;2023-12-29T02:11:41;13.30;24.70
418;DHT22;49;48.530;9.200;2023-12-29T02:14:09;13.30;25.20
418;DHT22;49;48.530;9.200;2023-12-29T02:16:40;13.40;24.10
418;DHT22;49;48.530;9.200;2023-12-29T02:19:20;13.40;23.70
418;DHT22;49;48.530;9.200;2023-12-29T02:21:48;13.40;24.50
418;DHT22;49;48.530;9.200;2023-12-29T02:24:16;13.40;24.50
418;DHT22;49;48.530;9.200;2023-12-29T02:26:47;13.40;24.50
418;DHT22;49;48.530;9.200;2023-12-29T02:29:19;13.30;25.20
418;DHT22;49;48.530;9.200;2023-12-29T02:31:48;13.20;25.20
418;DHT22;49;48.530;9.200;2023-12-29T02:34:18;13.30;25.80
418;DHT22;49;48.530;9.200;2023-12-29T02:36:46;13.20;25.50
418;DHT22;49;48.530;9.200;2023-12-29T02:39:14;13.10;26.80
418;DHT22;49;48.530;9.200;2023-12-29T02:41:41;13.10;27.30
418;DHT22;49;48.530;9.200;2023-12-29T02:44:09;13.00;27.40
418;DHT22;49;48.530;9.200;2023-12-29T02:46:36;12.70;28.80
418;DHT22;49;48.530;9.200;2023-12-29T02:49:03;12.80;29.30
418;DHT22;49;48.530;9.200;2023-12-29T02:51:30;12.80;29.30
418;DHT22;49;48.530;9.200;2023-12-29T02:53:57;12.90;28.80
418;DHT22;49;48.530;9.200;2023-12-29T02:56:25;13.10;28.50
418;DHT22;49;48.530;9.200;2023-12-29T02:58:52;13.20;27.40
418;DHT22;49;48.530;9.200;2023-12-29T03:01:20;13.30;26.10
418;DHT22;49;48.530;9.200;2023-12-29T03:03:47;12.80;28.40
418;DHT22;49;48.530;9.200;2023-12-29T03:06:14;13.20;28.20
418;DHT22;49;48.530;9.200;2023-12-29T03:08:41;13.30;26.70
418;DHT22;49;48.530;9.200;2023-12-29T03:11:09;13.30;27.00
418;DHT22;49;48.530;9.200;2023-12-29T03:13:36;13.20;27.60
418;DHT22;49;48.530;9.200;2023-12-29T03:16:03;13.20;27.60
418;DHT22;49;48.530;9.200;2023-12-29T03:18:31;13.50;26.80
418;DHT22;49;48.530;9.200;2023-12-29T03:20:58;13.80;25.60
418;DHT22;49;48.530;9.200;2023-12-29T03:23:25;13.70;25.20
418;DHT22;49;48.530;9.200;2023-12-29T03:25:52;13.30;26.40
418;DHT22;49;48.530;9.200;2023-12-29T03:28:19;12.80;28.60
418;DHT22;49;48.530;9.200;2023-12-29T03:30:45;13.00;28.40
418;DHT22;49;48.530;9.200;2023-12-29T03:33:12;13.10;27.10
418;DHT22;49;48.530;9.200;2023-12-29T03:35:40;13.00;27.80
418;DHT22;49;48.530;9.200;2023-12-29T03:38:07;13.10;27.10
418;DHT22;49;48.530;9.200;2023-12-29T03:40:34;13.10;28.10
418;DHT22;49;48.530;9.200;2023-12-29T03:43:01;13.10;28.30
418;DHT22;49;48.530;9.200;2023-12-29T03:45:28;12.90;28.90
418;DHT22;49;48.530;9.200;2023-12-29T03:47:55;13.20;27.80
418;DHT22;49;48.530;9.200;2023-12-29T03:50:22;13.20;28.50
418;DHT22;49;48.530;9.200;2023-12-29T03:52:50;13.30;28.70
418;DHT22;49;48.530;9.200;2023-12-29T03:55:17;13.40;27.80
418;DHT22;49;48.530;9.200;2023-12-29T03:57:44;13.40;27.90
418;DHT22;49;48.530;9.200;2023-12-29T04:00:12;13.20;28.00
418;DHT22;49;48.530;9.200;2023-12-29T04:02:39;13.20;28.60
418;DHT22;49;48.530;9.200;2023-12-29T04:05:08;13.10;28.90
418;DHT22;49;48.530;9.200;2023-12-29T04:07:35;13.20;28.70
418;DHT22;49;48.530;9.200;2023-12-29T04:10:04;13.30;29.00
418;DHT22;49;48.530;9.200;2023-12-29T04:12:31;13.20;28.90
418;DHT22;49;48.530;9.200;2023-12-29T04:14:58;13.40;28.00
418;DHT22;49;48.530;9.200;2023-12-29T04:17:25;13.50;28.20
418;DHT22;49;48.530;9.200;2023-12-29T04:19:51;13.50;27.90
418;DHT22;49;48.530;9.200;2023-12-29T04:22:18;13.50;27.50
418;DHT22;49;48.530;9.200;2023-12-29T04:24:45;13.80;26.50
418;DHT22;49;48.530;9.200;2023-12-29T04:27:14;13.60;27.00
418;DHT22;49;48.530;9.200;2023-12-29T04:29:41;13.70;26.90
418;DHT22;49;48.530;9.200;2023-12-29T04:32:08;13.90;25.80
418;DHT22;49;48.530;9.200;2023-12-29T04:34:34;13.70;26.40
418;DHT22;49;48.530;9.200;2023-12-29T04:37:01;13.90;25.60
418;DHT22;49;48.530;9.200;2023-12-29T04:39:28;14.10;25.30
418;DHT22;49;48.530;9.200;2023-12-29T04:41:55;14.10;25.60
418;DHT22;49;48.530;9.200;2023-12-29T04:44:24;14.00;25.70
418;DHT22;49;48.530;9.200;2023-12-29T04:46:50;14.00;25.80
418;DHT22;49;48.530;9.200;2023-12-29T04:49:17;14.20;25.90
418;DHT22;49;48.530;9.200;2023-12-29T04:51:44;14.20;25.10
418;DHT22;49;48.530;9.200;2023-12-29T04:54:14;13.70;26.20
418;DHT22;49;48.530;9.200;2023-12-29T04:56:40;13.40;28.80
418;DHT22;49;48.530;9.200;2023-12-29T04:59:07;13.40;28.60
418;DHT22;49;48.530;9.200;2023-12-29T05:01:35;13.40;29.20
418;DHT22;49;48.530;9.200;2023-12-29T05:04:02;13.50;28.60
418;DHT22;49;48.530;9.200;2023-12-29T05:06:29;13.60;28.30
418;DHT22;49;48.530;9.200;2023-12-29T05:08:57;13.70;28.40
418;DHT22;49;48.530;9.200;2023-12-29T05:11:24;13.60;28.00
418;DHT22;49;48.530;9.200;2023-12-29T05:13:51;13.40;28.70
418;DHT22;49;48.530;9.200;2023-12-29T05:16:19;13.30;28.60
418;DHT22;49;48.530;9.200;2023-12-29T05:18:47;13.50;28.10
418;DHT22;49;48.530;9.200;2023-12-29T05:21:15;13.70;28.40
418;DHT22;49;48.530;9.200;2023-12-29T05:23:43;13.80;26.90
418;DHT22;49;48.530;9.200;2023-12-29T05:26:10;13.70;27.50
418;DHT22;49;48.530;9.200;2023-12-29T05:28:37;13.70;28.10
418;DHT22;49;48.530;9.200;2023-12-29T05:31:04;13.50;29.00
418;DHT22;49;48.530;9.200;2023-12-29T05:33:30;13.70;28.30
418;DHT22;49;48.530;9.200;2023-12-29T05:36:06;13.70;28.30
418;DHT22;49;48.530;9.200;2023-12-29T05:38:33;13.70;29.50
418;DHT22;49;48.530;9.200;2023-12-29T05:41:01;13.80;27.60
418;DHT22;49;48.530;9.200;2023-12-29T05:43:30;13.90;27.50
418;DHT22;49;48.530;9.200;2023-12-29T05:45:57;13.80;26.60
418;DHT22;49;48.530;9.200;2023-12-29T05:48:25;13.50;29.20
418;DHT22;49;48.530;9.200;2023-12-29T05:50:52;13.50;28.90
418;DHT22;49;48.530;9.200;2023-12-29T05:53:21;13.50;29.20
418;DHT22;49;48.530;9.200;2023-12-29T05:55:48;13.50;28.30
418;DHT22;49;48.530;9.200;2023-12-29T05:58:15;13.50;29.20
418;DHT22;49;48.530;9.200;2023-12-29T06:00:42;13.60;28.80
418;DHT22;49;48.530;9.200;2023-12-29T06:03:10;13.60;29.10
418;DHT22;49;48.530;9.200;2023-12-29T06:05:37;13.90;28.10
418;DHT22;49;48.530;9.200;2023-12-29T06:08:05;14.00;27.10
418;DHT22;49;48.530;9.200;2023-12-29T06:10:35;13.90;27.30
418;DHT22;49;48.530;9.200;2023-12-29T06:13:02;14.00;26.70
418;DHT22;49;48.530;9.200;2023-12-29T06:15:29;14.10;25.80
418;DHT22;49;48.530;9.200;2023-12-29T06:17:56;14.20;26.70
418;DHT22;49;48.530;9.200;2023-12-29T06:20:23;14.30;26.00
418;DHT22;49;48.530;9.200;2023-12-29T06:22:50;14.20;25.90
418;DHT22;49;48.530;9.200;2023-12-29T06:25:18;14.00;26.60
418;DHT22;49;48.530;9.200;2023-12-29T06:27:46;14.10;26.50
418;DHT22;49;48.530;9.200;2023-12-29T06:30:14;14.10;26.90
418;DHT22;49;48.530;9.200;2023-12-29T06:32:41;14.10;27.00
418;DHT22;49;48.530;9.200;2023-12-29T06:35:08;14.20;25.90
418;DHT22;49;48.530;9.200;2023-12-29T06:37:36;14.40;26.00
418;DHT22;49;48.530;9.200;2023-12-29T06:40:05;14.60;25.10
418;DHT22;49;48.530;9.200;2023-12-29T06:42:32;14.70;24.10
418;DHT22;49;48.530;9.200;2023-12-29T06:45:01;15.00;23.30
418;DHT22;49;48.530;9.200;2023-12-29T06:47:28;14.70;23.80
418;DHT22;49;48.530;9.200;2023-12-29T06:49:55;14.70;24.30
418;DHT22;49;48.530;9.200;2023-12-29T06:52:22;14.50;25.20
418;DHT22;49;48.530;9.200;2023-12-29T06:54:49;14.60;24.90
418;DHT22;49;48.530;9.200;2023-12-29T06:57:16;14.60;24.90
418;DHT22;49;48.530;9.200;2023-12-29T06:59:43;14.60;24.80
418;DHT22;49;48.530;9.200;2023-12-29T07:02:12;14.50;25.80
418;DHT22;49;48.530;9.200;2023-12-29T07:04:41;14.70;25.20
418;DHT22;49;48.530;9.200;2023-12-29T07:07:08;14.80;24.70
418;DHT22;49;48.530;9.200;2023-12-29T07:09:38;14.70;24.70
418;DHT22;49;48.530;9.200;2023-12-29T07:12:05;14.90;24.00
418;DHT22;49;48.530;9.200;2023-12-29T07:14:32;14.90;24.00
418;DHT22;49;48.530;9.200;2023-12-29T07:17:02;14.90;24.00
418;DHT22;49;48.530;9.200;2023-12-29T07:19:31;14.90;23.60
418;DHT22;49;48.530;9.200;2023-12-29T07:22:03;14.80;23.50
418;DHT22;49;48.530;9.200;2023-12-29T07:24:30;14.70;23.80
418;DHT22;49;48.530;9.200;2023-12-29T07:26:57;14.60;24.60
418;DHT22;49;48.530;9.200;2023-12-29T07:29:27;14.60;24.30
418;DHT22;49;48.530;9.200;2023-12-29T07:31:55;14.50;24.30
418;DHT22;49;48.530;9.200;2023-12-29T07:34:22;14.40;24.60
418;DHT22;49;48.530;9.200;2023-12-29T07:36:50;14.50;24.40
418;DHT22;49;48.530;9.200;2023-12-29T07:39:18;14.50;24.40
418;DHT22;49;48.530;9.200;2023-12-29T07:41:45;14.30;24.30
418;DHT22;49;48.530;9.200;2023-12-29T07:44:13;14.40;24.70
418;DHT22;49;48.530;9.200;2023-12-29T07:46:40;14.30;24.70
418;DHT22;49;48.530;9.200;2023-12-29T07:49:07;13.90;26.40
418;DHT22;49;48.530;9.200;2023-12-29T07:51:38;14.00;25.70
418;DHT22;49;48.530;9.200;2023-12-29T07:54:07;13.90;25.60
418;DHT22;49;48.530;9.200;2023-12-29T07:56:34;14.10;25.80
418;DHT22;49;48.530;9.200;2023-12-29T07:59:02;14.10;25.80
418;DHT22;49;48.530;9.200;2023-12-29T08:01:29;14.30;24.60
418;DHT22;49;48.530;9.200;2023-12-29T08:03:56;14.30;24.50
418;DHT22;49;48.530;9.200;2023-12-29T08:06:23;14.30;23.80
418;DHT22;49;48.530;9.200;2023-12-29T08:08:51;14.60;23.20
418;DHT22;49;48.530;9.200;2023-12-29T08:11:19;14.80;23.10
418;DHT22;49;48.530;9.200;2023-12-29T08:13:47;14.70;22.60
418;DHT22;49;48.530;9.200;2023-12-29T08:16:14;14.70;23.00
418;DHT22;49;48.530;9.200;2023-12-29T08:18:43;14.90;23.00
418;DHT22;49;48.530;9.200;2023-12-29T08:21:16;15.00;22.20
418;DHT22;49;48.530;9.200;2023-12-29T08:23:43;15.10;21.70
418;DHT22;49;48.530;9.200;2023-12-29T08:26:10;15.10;22.10
418;DHT22;49;48.530;9.200;2023-12-29T08:28:38;15.30;21.20
418;DHT22;49;48.530;9.200;2023-12-29T08:31:06;15.30;21.10
418;DHT22;49;48.530;9.200;2023-12-29T08:33:33;15.10;21.90
418;DHT22;49;48.530;9.200;2023-12-29T08:36:02;15.00;22.80
418;DHT22;49;48.530;9.200;2023-12-29T08:38:29;15.20;22.40
418;DHT22;49;48.530;9.200;2023-12-29T08:40:56;15.10;22.40
418;DHT22;49;48.530;9.200;2023-12-29T08:43:23;15.00;22.70
418;DHT22;49;48.530;9.200;2023-12-29T08:45:51;15.00;22.80
418;DHT22;49;48.530;9.200;2023-12-29T08:48:18;15.10;23.20
418;DHT22;49;48.530;9.200;2023-12-29T08:50:45;15.20;22.70
418;DHT22;49;48.530;9.200;2023-12-29T08:53:12;15.40;22.70
418;DHT22;49;48.530;9.200;2023-12-29T08:55:39;15.50;21.60
418;DHT22;49;48.530;9.200;2023-12-29T08:58:06;15.60;22.30
418;DHT22;49;48.530;9.200;2023-12-29T09:00:33;15.60;21.80
418;DHT22;49;48.530;9.200;2023-12-29T09:03:01;15.50;22.40
418;DHT22;49;48.530;9.200;2023-12-29T09:05:28;15.30;22.80
418;DHT22;49;48.530;9.200;2023-12-29T09:07:55;14.80;25.20
418;DHT22;49;48.530;9.200;2023-12-29T09:10:22;14.60;25.80
418;DHT22;49;48.530;9.200;2023-12-29T09:12:49;14.40;26.40
418;DHT22;49;48.530;9.200;2023-12-29T09:15:16;14.80;25.50
418;DHT22;49;48.530;9.200;2023-12-29T09:17:43;15.00;24.60
418;DHT22;49;48.530;9.200;2023-12-29T09:20:11;15.10;23.80
418;DHT22;49;48.530;9.200;2023-12-29T09:22:40;15.10;23.50
418;DHT22;49;48.530;9.200;2023-12-29T09:25:07;15.20;23.70
418;DHT22;49;48.530;9.200;2023-12-29T09:27:34;15.30;22.10
418;DHT22;49;48.530;9.200;2023-12-29T09:30:00;15.00;23.50
418;DHT22;49;48.530;9.200;2023-12-29T09:32:27;14.80;24.70
418;DHT22;49;48.530;9.200;2023-12-29T09:34:54;14.60;24.60
418;DHT22;49;48.530;9.200;2023-12-29T09:37:23;14.80;24.80
418;DHT22;49;48.530;9.200;2023-12-29T09:39:50;15.10;23.40
418;DHT22;49;48.530;9.200;2023-12-29T09:42:20;15.20;23.10
418;DHT22;49;48.530;9.200;2023-12-29T09:44:49;15.40;22.40
418;DHT22;49;48.530;9.200;2023-12-29T09:47:20;15.50;21.70
418;DHT22;49;48.530;9.200;2023-12-29T09:49:48;15.60;21.00
418;DHT22;49;48.530;9.200;2023-12-29T09:52:17;15.50;21.70
418;DHT22;49;48.530;9.200;2023-12-29T09:54:47;15.40;20.80
418;DHT22;49;48.530;9.200;2023-12-29T09:57:15;15.40;21.70
418;DHT22;49;48.530;9.200;2023-12-29T09:59:42;15.50;20.90
418;DHT22;49;48.530;9.200;2023-12-29T10:02:13;15.70;21.00
418;DHT22;49;48.530;9.200;2023-12-29T10:04:41;15.70;20.60
418;DHT22;49;48.530;9.200;2023-12-29T10:07:10;15.70;19.60
418;DHT22;49;48.530;9.200;2023-12-29T10:09:41;15.80;20.20
418;DHT22;49;48.530;9.200;2023-12-29T10:12:10;16.00;19.90
418;DHT22;49;48.530;9.200;2023-12-29T10:14:45;16.20;19.70
418;DHT22;49;48.530;9.200;2023-12-29T10:17:27;16.40;18.70
418;DHT22;49;48.530;9.200;2023-12-29T10:20:05;16.10;18.70
418;DHT22;49;48.530;9.200;2023-12-29T10:22:41;15.60;20.60
418;DHT22;49;48.530;9.200;2023-12-29T10:25:10;15.20;21.90
418;DHT22;49;48.530;9.200;2023-12-29T10:27:38;14.60;24.00
418;DHT22;49;48.530;9.200;2023-12-29T10:30:10;14.60;24.00
418;DHT22;49;48.530;9.200;2023-12-29T10:32:37;14.40;25.30
418;DHT22;49;48.530;9.200;2023-12-29T10:35:08;14.30;25.30
418;DHT22;49;48.530;9.200;2023-12-29T10:37:36;14.40;25.20
418;DHT22;49;48.530;9.200;2023-12-29T10:40:04;14.40;24.60
418;DHT22;49;48.530;9.200;2023-12-29T10:42:31;14.90;23.60
418;DHT22;49;48.530;9.200;2023-12-29T10:45:07;15.40;21.00
418;DHT22;49;48.530;9.200;2023-12-29T10:47:34;15.10;20.90
418;DHT22;49;48.530;9.200;2023-12-29T10:50:02;15.00;21.30
418;DHT22;49;48.530;9.200;2023-12-29T10:52:30;14.60;22.40
418;DHT22;49;48.530;9.200;2023-12-29T10:55:05;15.00;21.70
418;DHT22;49;48.530;9.200;2023-12-29T10:57:32;15.00;21.60
418;DHT22;49;48.530;9.200;2023-12-29T10:59:59;14.90;21.80
418;DHT22;49;48.530;9.200;2023-12-29T11:02:28;15.00;21.40
418;DHT22;49;48.530;9.200;2023-12-29T11:05:02;15.40;20.80
418;DHT22;49;48.530;9.200;2023-12-29T11:07:38;15.70;18.80
418;DHT22;49;48.530;9.200;2023-12-29T11:10:06;15.60;18.80
418;DHT22;49;48.530;9.200;2023-12-29T11:12:35;15.60;18.80
418;DHT22;49;48.530;9.200;2023-12-29T11:15:04;15.40;19.20
418;DHT22;49;48.530;9.200;2023-12-29T11:17:35;15.40;19.20
418;DHT22;49;48.530;9.200;2023-12-29T11:20:03;15.50;19.60
418;DHT22;49;48.530;9.200;2023-12-29T11:22:31;15.60;19.30
418;DHT22;49;48.530;9.200;2023-12-29T11:24:59;15.80;18.10
418;DHT22;49;48.530;9.200;2023-12-29T11:27:28;16.20;17.10
418;DHT22;49;48.530;9.200;2023-12-29T11:29:57;15.70;18.30
418;DHT22;49;48.530;9.200;2023-12-29T11:32:28;15.90;17.10
418;DHT22;49;48.530;9.200;2023-12-29T11:35:06;16.20;16.90
418;DHT22;49;48.530;9.200;2023-12-29T11:37:49;16.00;17.00
418;DHT22;49;48.530;9.200;2023-12-29T11:40:20;16.40;16.30
418;DHT22;49;48.530;9.200;2023-12-29T11:42:51;16.70;15.30
418;DHT22;49;48.530;9.200;2023-12-29T11:45:25;16.50;15.60
418;DHT22;49;48.530;9.200;2023-12-29T11:47:52;16.30;16.00
418;DHT22;49;48.530;9.200;2023-12-29T11:50:29;16.20;16.80
418;DHT22;49;48.530;9.200;2023-12-29T11:52:57;16.00;16.90
418;DHT22;49;48.530;9.200;2023-12-29T11:55:28;15.60;17.50
418;DHT22;49;48.530;9.200;2023-12-29T11:57:56;15.70;18.40
418;DHT22;49;48.530;9.200;2023-12-29T12:00:41;15.80;19.00
418;DHT22;49;48.530;9.200;2023-12-29T12:03:17;15.30;19.60
418;DHT22;49;48.530;9.200;2023-12-29T12:05:47;15.00;21.60
418;DHT22;49;48.530;9.200;2023-12-29T12:08:29;15.60;20.80
418;DHT22;49;48.530;9.200;2023-12-29T12:10:57;15.80;20.00
418;DHT22;49;48.530;9.200;2023-12-29T12:13:44;15.70;19.80
418;DHT22;49;48.530;9.200;2023-12-29T12:16:48;15.70;20.00
418;DHT22;49;48.530;9.200;2023-12-29T12:19:16;15.30;20.90
418;DHT22;49;48.530;9.200;2023-12-29T12:21:47;15.20;21.30
418;DHT22;49;48.530;9.200;2023-12-29T12:24:15;15.50;20.90
418;DHT22;49;48.530;9.200;2023-12-29T12:26:44;15.50;20.90
418;DHT22;49;48.530;9.200;2023-12-29T12:29:13;15.50;20.90
418;DHT22;49;48.530;9.200;2023-12-29T12:31:51;15.60;20.50
418;DHT22;49;48.530;9.200;2023-12-29T12:34:18;15.90;19.90
418;DHT22;49;48.530;9.200;2023-12-29T12:36:50;16.30;17.60
418;DHT22;49;48.530;9.200;2023-12-29T12:39:17;16.20;17.90
418;DHT22;49;48.530;9.200;2023-12-29T12:41:44;16.60;17.20
418;DHT22;49;48.530;9.200;2023-12-29T12:44:12;16.50;16.50
418;DHT22;49;48.530;9.200;2023-12-29T12:46:51;16.60;16.30
418;DHT22;49;48.530;9.200;2023-12-29T12:49:19;16.60;15.60
418;DHT22;49;48.530;9.200;2023-12-29T12:51:48;16.50;15.60
418;DHT22;49;48.530;9.200;2023-12-29T12:54:18;15.90;17.30
418;DHT22;49;48.530;9.200;2023-12-29T12:56:45;15.50;17.80
418;DHT22;49;48.530;9.200;2023-12-29T12:59:13;15.30;19.00
418;DHT22;49;48.530;9.200;2023-12-29T13:01:42;15.30;18.90
418;DHT22;49;48.530;9.200;2023-12-29T13:04:10;15.30;18.50
418;DHT22;49;48.530;9.200;2023-12-29T13:06:40;15.40;18.30
418;DHT22;49;48.530;9.200;2023-12-29T13:09:09;15.50;17.20
418;DHT22;49;48.530;9.200;2023-12-29T13:11:37;15.20;17.90
418;DHT22;49;48.530;9.200;2023-12-29T13:14:05;14.80;18.10
418;DHT22;49;48.530;9.200;2023-12-29T13:16:34;14.70;19.20
418;DHT22;49;48.530;9.200;2023-12-29T13:19:17;14.70;18.40
418;DHT22;49;48.530;9.200;2023-12-29T13:21:46;14.80;19.10
418;DHT22;49;48.530;9.200;2023-12-29T13:24:15;15.00;18.10
418;DHT22;49;48.530;9.200;2023-12-29T13:26:44;15.20;18.10
418;DHT22;49;48.530;9.200;2023-12-29T13:29:12;15.40;16.60
418;DHT22;49;48.530;9.200;2023-12-29T13:31:40;15.40;17.20
418;DHT22;49;48.530;9.200;2023-12-29T13:34:13;15.40;17.30
418;DHT22;49;48.530;9.200;2023-12-29T13:36:49;15.40;16.80
418;DHT22;49;48.530;9.200;2023-12-29T13:39:23;15.30;16.50
418;DHT22;49;48.530;9.200;2023-12-29T13:41:52;15.10;16.00
418;DHT22;49;48.530;9.200;2023-12-29T13:44:19;15.40;16.20
418;DHT22;49;48.530;9.200;2023-12-29T13:46:47;15.40;14.80
418;DHT22;49;48.530;9.200;2023-12-29T13:49:15;15.30;14.70
418;DHT22;49;48.530;9.200;2023-12-29T13:51:42;15.10;14.60
418;DHT22;49;48.530;9.200;2023-12-29T13:54:09;15.00;14.10
418;DHT22;49;48.530;9.200;2023-12-29T13:56:37;15.00;14.30
418;DHT22;49;48.530;9.200;2023-12-29T13:59:05;14.80;13.00
418;DHT22;49;48.530;9.200;2023-12-29T14:01:35;14.80;12.90
418;DHT22;49;48.530;9.200;2023-12-29T14:04:06;15.20;12.00
418;DHT22;49;48.530;9.200;2023-12-29T14:06:39;15.20;13.70
418;DHT22;49;48.530;9.200;2023-12-29T14:09:11;15.30;11.20
418;DHT22;49;48.530;9.200;2023-12-29T14:11:45;15.20;14.00
418;DHT22;49;48.530;9.200;2023-12-29T14:14:12;15.30;11.40
418;DHT22;49;48.530;9.200;2023-12-29T14:16:39;15.30;12.30
418;DHT22;49;48.530;9.200;2023-12-29T14:19:06;14.80;12.30
418;DHT22;49;48.530;9.200;2023-12-29T14:21:33;14.60;11.70
418;DHT22;49;48.530;9.200;2023-12-29T14:24:10;14.60;11.70
418;DHT22;49;48.530;9.200;2023-12-29T14:26:37;14.70;11.80
418;DHT22;49;48.530;9.200;2023-12-29T14:29:08;14.90;10.90
418;DHT22;49;48.530;9.200;2023-12-29T14:31:37;14.60;11.30
418;DHT22;49;48.530;9.200;2023-12-29T14:34:04;14.60;12.60
418;DHT22;49;48.530;9.200;2023-12-29T14:36:31;14.60;12.00
418;DHT22;49;48.530;9.200;2023-12-29T14:38:58;14.40;13.40
418;DHT22;49;48.530;9.200;2023-12-29T14:41:25;14.60;11.80
418;DHT22;49;48.530;9.200;2023-12-29T14:43:52;14.40;12.70
418;DHT22;49;48.530;9.200;2023-12-29T14:46:20;14.50;12.00
418;DHT22;49;48.530;9.200;2023-12-29T14:48:47;14.20;11.80
418;DHT22;49;48.530;9.200;2023-12-29T14:51:14;14.30;12.50
418;DHT22;49;48.530;9.200;2023-12-29T14:53:43;14.20;13.80
418;DHT22;49;48.530;9.200;2023-12-29T14:56:11;14.10;13.30
418;DHT22;49;48.530;9.200;2023-12-29T14:58:38;13.90;13.70
418;DHT22;49;48.530;9.200;2023-12-29T15:01:05;13.80;13.70
418;DHT22;49;48.530;9.200;2023-12-29T15:03:34;13.70;16.70
418;DHT22;49;48.530;9.200;2023-12-29T15:06:01;13.80;13.20
418;DHT22;49;48.530;9.200;2023-12-29T15:08:29;14.00;12.60
418;DHT22;49;48.530;9.200;2023-12-29T15:11:00;14.00;15.30
418;DHT22;49;48.530;9.200;2023-12-29T15:13:27;13.90;13.70
418;DHT22;49;48.530;9.200;2023-12-29T15:15:55;13.80;13.70
418;DHT22;49;48.530;9.200;2023-12-29T15:18:22;14.10;14.60
418;DHT22;49;48.530;9.200;2023-12-29T15:20:50;13.80;13.70
418;DHT22;49;48.530;9.200;2023-12-29T15:23:17;14.00;16.50
418;DHT22;49;48.530;9.200;2023-12-29T15:25:44;13.90;13.80
418;DHT22;49;48.530;9.200;2023-12-29T15:28:11;13.60;14.30
418;DHT22;49;48.530;9.200;2023-12-29T15:30:38;13.70;14.60
418;DHT22;49;48.530;9.200;2023-12-29T15:33:05;13.70;14.00
418;DHT22;49;48.530;9.200;2023-12-29T15:35:32;13.40;15.70
418;DHT22;49;48.530;9.200;2023-12-29T15:38:00;13.50;15.00
418;DHT22;49;48.530;9.200;2023-12-29T15:40:27;14.00;15.50
418;DHT22;49;48.530;9.200;2023-12-29T15:42:53;14.00;14.40
418;DHT22;49;48.530;9.200;2023-12-29T15:45:22;14.30;14.00
418;DHT22;49;48.530;9.200;2023-12-29T15:47:48;14.40;12.90
418;DHT22;49;48.530;9.200;2023-12-29T15:50:15;14.50;14.20
418;DHT22;49;48.530;9.200;2023-12-29T15:52:42;14.70;13.40
418;DHT22;49;48.530;9.200;2023-12-29T15:55:10;14.60;12.80
418;DHT22;49;48.530;9.200;2023-12-29T15:57:37;14.60;12.40
418;DHT22;49;48.530;9.200;2023-12-29T16:00:05;14.30;13.50
418;DHT22;49;48.530;9.200;2023-12-29T16:02:33;14.40;14.10
418;DHT22;49;48.530;9.200;2023-12-29T16:05:00;14.70;16.10
418;DHT22;49;48.530;9.200;2023-12-29T16:07:28;15.00;12.30
418;DHT22;49;48.530;9.200;2023-12-29T16:09:56;15.30;12.00
418;DHT22;49;48.530;9.200;2023-12-29T16:12:24;15.40;12.50
418;DHT22;49;48.530;9.200;2023-12-29T16:14:51;15.20;12.60
418;DHT22;49;48.530;9.200;2023-12-29T16:17:19;15.40;13.40
418;DHT22;49;48.530;9.200;2023-12-29T16:19:46;15.50;13.90
418;DHT22;49;48.530;9.200;2023-12-29T16:22:13;15.60;14.30
418;DHT22;49;48.530;9.200;2023-12-29T16:24:39;15.80;15.10
418;DHT22;49;48.530;9.200;2023-12-29T16:27:06;15.80;15.40
418;DHT22;49;48.530;9.200;2023-12-29T16:29:34;16.00;12.20
418;DHT22;49;48.530;9.200;2023-12-29T16:32:01;16.20;15.40
418;DHT22;49;48.530;9.200;2023-12-29T16:34:28;16.30;15.10
418;DHT22;49;48.530;9.200;2023-12-29T16:36:58;16.50;14.60
418;DHT22;49;48.530;9.200;2023-12-29T16:39:25;16.40;14.20
418;DHT22;49;48.530;9.200;2023-12-29T16:41:52;16.40;14.00
418;DHT22;49;48.530;9.200;2023-12-29T16:44:19;16.40;13.00
418;DHT22;49;48.530;9.200;2023-12-29T16:46:47;16.20;11.60
418;DHT22;49;48.530;9.200;2023-12-29T16:49:14;16.20;13.50
418;DHT22;49;48.530;9.200;2023-12-29T16:51:41;16.20;13.60
418;DHT22;49;48.530;9.200;2023-12-29T16:54:08;16.20;13.40
418;DHT22;49;48.530;9.200;2023-12-29T16:56:34;16.20;14.70
418;DHT22;49;48.530;9.200;2023-12-29T16:59:01;16.20;14.00